Latest Weather Observations for Cummins Airport

IDS60801

Issued at 4:02 pm CDT Tuesday 27 January 2015 (issued every 30 minutes, with the page automatically refreshed every 10 minutes)

About weather observations | Map of weather stations | Latest weather observations for SA | Other Formats
Station Details ID: 018217 Name: CUMMINS AERO Lat: -34.25 Lon: 135.71 Height: 60.11 m
Data from the previous 72 hours. | See also: Recent months at Cummins Airport
Date/Time
CDT
Temp
°C
App
Temp
°C
Dew
Point
Rel
Hum
%
Delta-T
°C
Wind Press
QNH
hPa
Press
MSL
hPa
Rain
since 9 am
mm
Dir
 
Spd
km/h
Gust
km/h
Spd
kts
Gust
kts
27/04:00pm 21.1 14.1 6.2 38 7.5 SSE 32 39 17 21 1017.2 1017.0 0.0
27/03:30pm 20.9 15.1 6.4 39 7.3 SSE 26 39 14 21 1017.4 1017.2 0.0
27/03:00pm 22.4 17.1 7.0 37 7.9 SE 24 39 13 21 1017.4 1017.2 0.0
27/02:30pm 22.0 16.8 7.4 39 7.6 SSE 24 35 13 19 1017.7 1017.5 0.0
27/02:00pm 21.8 16.5 6.9 38 7.6 SSE 24 39 13 21 1017.9 1017.7 0.0
27/01:30pm 22.0 17.5 7.0 38 7.7 SSE 20 33 11 18 1018.0 1017.8 0.0
27/01:00pm 21.5 16.4 7.7 41 7.2 SE 24 37 13 20 1018.4 1018.2 0.0
27/12:30pm 20.6 14.8 7.9 44 6.6 SSE 28 39 15 21 1018.5 1018.3 0.0
27/12:00pm 20.4 15.5 7.1 42 6.8 SE 22 37 12 20 1018.7 1018.5 0.0
27/11:30am 19.8 15.0 7.5 45 6.3 SSE 22 35 12 19 1018.7 1018.5 0.0
27/11:00am 20.6 15.9 7.9 44 6.6 SE 22 35 12 19 1019.0 1018.8 0.0
27/10:30am 18.5 13.6 7.0 47 5.8 SE 22 32 12 17 1019.1 1018.9 0.0
27/10:00am 18.4 13.6 7.2 48 5.7 ESE 22 32 12 17 1019.2 1019.0 0.0
27/09:30am 17.7 12.9 7.4 51 5.2 SE 22 32 12 17 1019.3 1019.1 0.0
27/09:00am 17.2 12.5 7.8 54 4.8 SE 22 32 12 17 1019.3 1019.1 0.0
27/08:30am 15.3 12.8 8.1 62 3.6 SW 11 17 6 9 1019.3 1019.1 0.0
27/08:00am 12.7 10.1 7.8 72 2.4 SSW 11 11 6 6 1019.2 1019.0 0.0
27/07:30am 11.0 8.4 7.7 80 1.6 SSW 11 13 6 7 1018.9 1018.7 0.0
27/07:00am 9.6 6.5 7.2 85 1.1 S 13 15 7 8 1018.6 1018.4 0.0
27/06:30am 8.8 6.3 6.6 86 1.0 S 9 11 5 6 1018.4 1018.2 0.0
27/06:00am 8.9 5.7 6.9 87 0.9 S 13 13 7 7 1017.9 1017.7 0.0
27/05:30am 8.6 5.7 6.4 86 1.0 S 11 11 6 6 1017.7 1017.5 0.0
27/05:00am 9.6 6.8 7.0 84 1.2 S 11 13 6 7 1017.7 1017.5 0.0
27/04:30am 10.7 6.9 7.6 81 1.5 S 17 19 9 10 1017.7 1017.5 0.0
27/04:00am 10.1 7.3 7.0 81 1.5 SSW 11 13 6 7 1017.7 1017.5 0.0
27/03:30am 11.3 8.3 7.6 78 1.8 S 13 17 7 9 1017.7 1017.5 0.0
27/03:00am 11.3 7.9 7.8 79 1.7 S 15 17 8 9 1017.9 1017.7 0.0
27/02:30am 11.2 7.8 7.7 79 1.7 S 15 19 8 10 1018.3 1018.1 0.0
27/02:00am 11.2 7.4 7.5 78 1.8 S 17 20 9 11 1018.3 1018.1 0.0
27/01:30am 11.4 8.0 7.7 78 1.8 S 15 19 8 10 1018.6 1018.4 0.0
27/01:00am 11.5 8.1 7.8 78 1.8 S 15 19 8 10 1018.8 1018.6 0.0
27/12:30am 11.2 7.8 7.7 79 1.7 SSW 15 17 8 9 1019.0 1018.8 0.0
27/12:00am 11.3 7.9 7.6 78 1.8 SSW 15 17 8 9 1019.2 1019.0 0.0
 
Date/Time
CDT
Temp
°C
App
Temp
°C
Dew
Point
Rel
Hum
%
Delta-T
°C
Wind Press
QNH
hPa
Press
MSL
hPa
Rain
since 9 am
mm
Dir
 
Spd
km/h
Gust
km/h
Spd
kts
Gust
kts
26/11:30pm 11.8 8.8 7.9 77 1.9 SSW 13 15 7 8 1019.4 1019.2 0.0
26/11:00pm 12.8 10.3 8.1 73 2.3 S 11 13 6 7 1019.4 1019.2 0.0
26/10:30pm 13.8 10.5 8.2 69 2.8 S 15 17 8 9 1019.4 1019.2 0.0
26/10:00pm 14.5 11.2 8.2 66 3.2 S 15 19 8 10 1019.3 1019.1 0.0
26/09:30pm 15.4 11.4 8.4 63 3.5 S 19 26 10 14 1019.2 1019.0 0.0
26/09:00pm 15.9 11.6 7.9 59 4.0 S 20 26 11 14 1018.9 1018.7 0.0
26/08:30pm 16.8 11.2 7.2 53 4.8 S 26 35 14 19 1018.6 1018.4 0.0
26/08:00pm 17.9 12.2 6.7 48 5.6 SSE 26 33 14 18 1018.2 1018.0 0.0
26/07:30pm 18.5 11.6 6.4 45 6.0 SSE 32 39 17 21 1017.9 1017.7 0.0
26/07:00pm 18.5 12.4 6.7 46 5.9 SSE 28 37 15 20 1017.9 1017.7 0.0
26/06:30pm 19.7 13.8 7.4 45 6.3 SSE 28 41 15 22 1017.5 1017.3 0.0
26/06:00pm 19.7 13.4 7.4 45 6.3 SSE 30 48 16 26 1017.4 1017.2 0.0
26/05:45pm 20.4 14.5 7.4 43 6.7 SSE 28 48 15 26 1017.4 1017.2 0.0
26/05:30pm 20.7 14.7 7.0 41 7.0 SSE 28 37 15 20 1017.4 1017.2 0.0
26/05:00pm 20.3 14.1 7.7 44 6.5 SSE 30 43 16 23 1017.5 1017.3 0.0
26/04:30pm 21.2 15.3 7.4 41 7.1 SE 28 39 15 21 1017.5 1017.3 0.0
26/04:00pm 20.8 15.5 6.7 40 7.2 SE 24 32 13 17 1017.6 1017.4 0.0
26/03:30pm 21.7 16.3 6.4 37 7.8 SE 24 41 13 22 1017.4 1017.2 0.0
26/03:00pm 21.6 16.5 5.9 36 7.9 SSE 22 35 12 19 1017.6 1017.4 0.0
26/02:30pm 20.9 15.7 5.7 37 7.6 SSE 22 39 12 21 1017.7 1017.5 0.0
26/02:00pm 20.7 15.2 5.9 38 7.4 SSE 24 33 13 18 1018.0 1017.8 0.0
26/01:30pm 20.7 16.3 6.6 40 7.1 S 19 28 10 15 1018.3 1018.1 0.0
26/01:00pm 19.8 15.3 6.9 43 6.5 SSE 20 28 11 15 1018.5 1018.3 0.0
26/12:30pm 20.7 16.2 7.0 41 7.0 SE 20 26 11 14 1018.5 1018.3 0.0
26/12:00pm 20.2 15.5 7.9 45 6.4 SSE 22 33 12 18 1018.7 1018.5 0.0
26/11:30am 20.3 16.0 8.0 45 6.4 SSE 20 28 11 15 1018.8 1018.6 0.0
26/11:00am 19.0 13.7 6.8 45 6.1 SSE 24 32 13 17 1018.7 1018.5 0.0
26/10:30am 20.5 15.9 6.4 40 7.1 S 20 32 11 17 1018.9 1018.7 0.0
26/10:00am 19.9 15.3 6.6 42 6.7 S 20 30 11 16 1018.9 1018.7 0.0
26/09:30am 18.6 13.7 6.8 46 5.9 SSE 22 30 12 16 1019.2 1019.0 0.0
26/09:00am 18.2 14.1 8.5 53 5.0 S 20 26 11 14 1019.2 1019.0 0.0
26/08:30am 16.6 12.8 9.1 61 3.9 S 19 22 10 12 1018.9 1018.7 0.0
26/08:00am 15.3 11.7 8.5 64 3.5 SSW 17 24 9 13 1018.7 1018.5 0.0
26/07:30am 12.8 10.6 7.9 72 2.4 S 9 11 5 6 1018.5 1018.3 0.0
26/07:00am 13.3 11.1 8.0 70 2.6 S 9 11 5 6 1018.2 1018.0 0.0
26/06:30am 14.2 12.6 7.9 66 3.1 SSW 6 7 3 4 1018.0 1017.8 0.0
26/06:00am 14.2 12.0 7.9 66 3.1 S 9 11 5 6 1018.1 1017.9 0.0
26/05:30am 14.2 11.7 8.2 67 3.0 S 11 13 6 7 1017.9 1017.7 0.0
26/05:00am 14.1 12.3 7.9 66 3.1 SSW 7 9 4 5 1017.7 1017.5 0.0
26/04:30am 13.9 12.0 7.7 66 3.1 SSW 7 11 4 6 1017.6 1017.4 0.0
26/04:00am 14.2 11.2 7.5 64 3.3 SW 13 15 7 8 1017.4 1017.2 0.0
26/03:30am 14.0 12.0 7.3 64 3.3 SW 7 9 4 5 1017.2 1017.0 0.0
26/03:00am 13.8 11.8 6.9 63 3.3 SW 7 9 4 5 1017.2 1017.0 0.0
26/02:30am 13.4 11.3 6.7 64 3.2 SW 7 9 4 5 1017.5 1017.3 0.0
26/02:00am 12.9 12.1 6.5 65 3.1 CALM 0 0 0 0 1017.7 1017.5 0.0
26/01:30am 12.6 11.0 6.2 65 3.0 WSW 4 6 2 3 1017.8 1017.6 0.0
26/01:00am 12.0 9.8 6.1 67 2.8 S 7 9 4 5 1017.7 1017.5 0.0
26/12:30am 13.0 10.0 6.1 63 3.3 SW 11 13 6 7 1017.9 1017.7 0.0
26/12:00am 14.6 11.7 6.7 59 3.8 SSW 11 15 6 8 1018.0 1017.8 0.0
 
Date/Time
CDT
Temp
°C
App
Temp
°C
Dew
Point
Rel
Hum
%
Delta-T
°C
Wind Press
QNH
hPa
Press
MSL
hPa
Rain
since 9 am
mm
Dir
 
Spd
km/h
Gust
km/h
Spd
kts
Gust
kts
25/11:30pm 15.0 12.7 5.8 54 4.4 S 7 9 4 5 1018.2 1018.0 0.0
25/11:00pm 15.0 12.7 5.8 54 4.4 SSW 7 11 4 6 1018.4 1018.2 0.0
25/10:30pm 14.9 11.8 5.4 53 4.5 S 11 13 6 7 1018.4 1018.2 0.0
25/10:00pm 14.3 10.8 5.4 55 4.2 S 13 17 7 9 1018.0 1017.8 0.0
25/09:30pm 15.1 10.4 5.3 52 4.6 SSW 19 28 10 15 1017.5 1017.3 0.0
25/09:00pm 16.1 10.2 5.7 50 5.0 SSW 26 33 14 18 1017.0 1016.8 0.0
25/08:30pm 16.7 11.5 5.6 48 5.4 S 22 28 12 15 1016.7 1016.5 0.0
25/08:00pm 17.3 11.4 5.9 47 5.6 SSW 26 39 14 21 1016.4 1016.2 0.0
25/07:30pm 18.1 12.6 6.0 45 5.9 SSW 24 32 13 17 1016.2 1016.0 0.0
25/07:00pm 18.9 12.2 5.4 41 6.6 SW 30 41 16 22 1015.9 1015.7 0.0
25/06:30pm 19.2 13.3 5.6 41 6.7 SW 26 37 14 20 1015.8 1015.6 0.0
25/06:00pm 20.0 14.1 5.6 39 7.1 SW 26 35 14 19 1015.7 1015.5 0.0
25/05:30pm 20.5 14.0 4.9 36 7.6 SW 28 39 15 21 1015.5 1015.3 0.0
25/05:00pm 21.1 14.8 5.9 37 7.6 SSW 28 43 15 23 1015.3 1015.1 0.0
25/04:30pm 21.2 14.3 6.3 38 7.5 SSW 32 41 17 22 1015.4 1015.2 0.0
25/04:00pm 21.3 15.4 6.0 37 7.7 SSW 26 43 14 23 1015.4 1015.2 0.0
25/03:35pm 22.0 15.7 5.8 35 8.2 SW 28 46 15 25 1015.2 1015.0 0.0
25/03:30pm 22.0 16.2 6.3 36 8.0 SW 26 39 14 21 1015.2 1015.0 0.0
25/03:00pm 22.0 15.4 4.1 31 8.7 SSW 28 39 15 21 1015.1 1014.9 0.0
25/02:30pm 20.6 14.3 3.8 33 8.1 SSW 26 41 14 22 1015.5 1015.3 0.0
25/02:00pm 21.2 14.8 5.1 35 8.0 SSW 28 46 15 25 1015.4 1015.2 0.0
25/01:38pm 20.5 13.9 6.1 39 7.2 SSW 30 48 16 26 1015.5 1015.3 0.0
25/01:30pm 20.4 13.4 6.0 39 7.2 SW 32 43 17 23 1015.6 1015.4 0.0
25/01:00pm 20.5 13.7 5.3 37 7.5 SW 30 44 16 24 1015.9 1015.7 0.0
25/12:30pm 19.9 14.1 4.4 36 7.5 SSW 24 35 13 19 1016.1 1015.9 0.0
25/12:00pm 19.3 13.7 5.4 40 6.8 SW 24 35 13 19 1016.3 1016.1 0.0
25/11:30am 19.1 14.0 6.2 43 6.4 SSW 22 32 12 17 1016.2 1016.0 0.0
25/11:00am 18.6 13.4 7.1 47 5.8 SW 24 33 13 18 1016.1 1015.9 0.0
25/10:30am 19.1 14.3 5.6 41 6.6 SW 20 32 11 17 1016.0 1015.8 0.0
25/10:00am 17.3 12.6 5.3 45 5.8 SW 19 28 10 15 1016.4 1016.2 0.0
25/09:30am 17.0 12.8 5.6 47 5.5 SW 17 30 9 16 1016.1 1015.9 0.0
25/09:00am 15.5 13.9 8.0 61 3.8 WSW 6 11 3 6 1015.9 1015.7 0.0
25/08:30am 13.9 13.5 8.3 69 2.8 CALM 0 0 0 0 1015.4 1015.2 0.0
25/08:00am 11.7 10.2 9.3 85 1.2 NNE 7 7 4 4 1014.8 1014.6 0.0
25/07:30am 10.6 10.4 8.9 89 0.8 CALM 0 0 0 0 1014.2 1014.0 0.0
25/07:00am 9.7 7.9 8.1 90 0.8 NE 7 9 4 5 1014.1 1013.9 0.0
25/06:30am 10.2 9.9 8.8 91 0.7 CALM 0 0 0 0 1014.0 1013.8 0.0
25/06:00am 9.4 9.0 8.2 92 0.6 CALM 0 2 0 1 1013.4 1013.2 0.0
25/05:30am 8.4 7.8 7.2 92 0.6 CALM 0 0 0 0 1012.7 1012.4 0.0
25/05:00am 8.8 8.2 7.6 92 0.6 CALM 0 0 0 0 1012.5 1012.2 0.0
25/04:30am 8.4 7.6 6.4 87 0.9 CALM 0 0 0 0 1012.3 1012.0 0.0
25/04:00am 11.0 10.7 8.8 86 1.1 CALM 0 0 0 0 1012.2 1011.9 0.0
25/03:30am 11.6 10.2 8.8 83 1.4 WSW 6 7 3 4 1012.0 1011.7 0.0
25/03:00am 11.7 9.8 8.9 83 1.4 SSW 9 11 5 6 1012.0 1011.7 0.0
25/02:30am 12.3 10.0 9.1 81 1.6 SSW 11 11 6 6 1012.2 1011.9 0.0
25/02:00am 12.9 11.1 9.5 80 1.7 S 9 11 5 6 1012.2 1011.9 0.0
25/01:30am 14.4 11.7 10.2 76 2.2 SSW 15 20 8 11 1012.3 1012.0 0.0
25/01:00am 15.5 12.6 11.1 75 2.4 SSW 17 26 9 14 1012.3 1012.0 0.0
25/12:30am 15.2 12.9 11.6 79 1.9 SW 15 17 8 9 1012.4 1012.1 0.0
25/12:00am 15.8 13.6 12.0 78 2.1 SW 15 20 8 11 1012.3 1012.0 0.0
 
Date/Time
CDT
Temp
°C
App
Temp
°C
Dew
Point
Rel
Hum
%
Delta-T
°C
Wind Press
QNH
hPa
Press
MSL
hPa
Rain
since 9 am
mm
Dir
 
Spd
km/h
Gust
km/h
Spd
kts
Gust
kts
24/11:30pm 16.2 12.5 12.6 79 2.0 SSW 24 33 13 18 1012.1 1011.8 0.0
24/11:00pm 16.2 13.7 12.4 78 2.1 SW 17 22 9 12 1012.0 1011.7 0.0
24/10:30pm 16.5 14.3 13.2 81 1.9 SW 17 22 9 12 1011.8 1011.5 0.0
24/10:00pm 16.7 13.3 13.6 82 1.8 SW 24 32 13 17 1011.4 1011.1 0.0
24/09:30pm 16.7 14.8 14.2 85 1.4 SW 17 26 9 14 1011.0 1010.7 0.0
24/09:00pm 18.1 15.3 12.5 70 3.1 WSW 19 28 10 15 1010.6 1010.4 0.0
24/08:30pm 17.8 15.0 12.5 71 3.0 WSW 19 28 10 15 1010.3 1010.1 0.0
24/08:00pm 18.0 13.8 13.5 75 2.6 WSW 28 37 15 20 1009.9 1009.7 0.0
24/07:30pm 20.0 13.5 13.0 64 4.0 W 39 46 21 25 1009.3 1009.1 0.0
24/07:00pm 21.2 15.5 12.9 59 4.7 W 35 44 19 24 1009.0 1008.8 0.0
24/06:30pm 21.6 15.1 11.6 53 5.6 WSW 37 50 20 27 1008.7 1008.5 0.0
24/06:00pm 22.3 15.3 11.4 50 6.1 W 39 48 21 26 1008.5 1008.3 0.0
24/05:30pm 23.1 17.2 11.2 47 6.7 W 33 48 18 26 1008.4 1008.2 0.0
24/05:09pm 21.8 16.7 13.7 60 4.7 W 33 52 18 28 1008.5 1008.3 0.0
24/05:00pm 21.0 14.0 13.7 63 4.2 W 43 52 23 28 1008.6 1008.4 0.0
24/04:30pm 23.0 16.1 11.7 49 6.4 W 39 46 21 25 1008.5 1008.3 0.0

Other Formats:

Comma delimited format used in spreadsheet applications
http://www.bom.gov.au/fwo/IDS60801/IDS60801.95663.axf

JavaScript Object Notation format (JSON) in row-major order
http://www.bom.gov.au/fwo/IDS60801/IDS60801.95663.json